createdAt,value
2023-03-06T00:15:15.390Z,95.50
2023-03-06T00:17:42.331Z,95.30
2023-03-06T00:20:11.754Z,95.50
2023-03-06T00:22:39.001Z,95.80
2023-03-06T00:25:07.323Z,95.60
2023-03-06T00:27:34.537Z,95.80
2023-03-06T00:30:01.875Z,95.90
2023-03-06T00:32:29.414Z,96.00
2023-03-06T00:34:56.556Z,96.10
2023-03-06T00:37:25.033Z,96.20
2023-03-06T00:39:52.269Z,96.20
2023-03-06T00:42:19.945Z,96.30
2023-03-06T00:44:47.005Z,96.30
2023-03-06T00:47:17.152Z,96.50
2023-03-06T00:49:45.245Z,96.60
2023-03-06T00:52:14.463Z,96.80
2023-03-06T00:54:41.763Z,96.80
2023-03-06T00:57:08.743Z,97.00
2023-03-06T00:59:35.789Z,97.10
2023-03-06T01:02:03.167Z,97.30
2023-03-06T01:04:30.128Z,97.50
2023-03-06T01:06:57.024Z,97.50
2023-03-06T01:09:24.450Z,97.80
2023-03-06T01:11:51.313Z,97.70
2023-03-06T01:14:19.493Z,98.00
2023-03-06T01:16:47.045Z,98.10
2023-03-06T01:19:13.844Z,98.50
2023-03-06T01:21:41.011Z,98.60
2023-03-06T01:24:07.968Z,98.70
2023-03-06T01:26:35.060Z,98.80
2023-03-06T01:29:02.045Z,98.90
2023-03-06T01:31:29.382Z,98.90
2023-03-06T01:33:56.191Z,99.10
2023-03-06T01:36:22.968Z,99.10
2023-03-06T01:38:49.814Z,99.20
2023-03-06T01:41:17.298Z,99.60
2023-03-06T01:43:46.132Z,99.80
2023-03-06T01:46:24.750Z,99.90
2023-03-06T01:49:02.243Z,99.90
2023-03-06T01:51:38.222Z,99.90
2023-03-06T01:54:11.863Z,99.90
2023-03-06T01:56:42.651Z,99.90
2023-03-06T01:59:09.830Z,99.90
2023-03-06T02:01:39.646Z,99.90
2023-03-06T02:04:07.256Z,99.90
2023-03-06T02:06:37.433Z,99.90
2023-03-06T02:09:05.678Z,99.90
2023-03-06T02:11:32.668Z,99.90
2023-03-06T02:13:59.547Z,99.90
2023-03-06T02:16:30.078Z,99.90
2023-03-06T02:18:58.775Z,99.90
2023-03-06T02:21:32.580Z,99.90
2023-03-06T02:24:15.638Z,99.90
2023-03-06T02:26:44.945Z,99.90
2023-03-06T02:29:12.055Z,99.90
2023-03-06T02:31:39.003Z,99.90
2023-03-06T02:34:28.834Z,99.90
2023-03-06T02:37:28.514Z,99.90
2023-03-06T02:40:01.649Z,99.90
2023-03-06T02:42:29.429Z,99.90
2023-03-06T02:44:59.201Z,99.90
2023-03-06T02:47:26.341Z,99.90
2023-03-06T02:49:53.158Z,99.90
2023-03-06T02:52:20.056Z,99.90
2023-03-06T02:54:47.074Z,99.90
2023-03-06T02:57:13.869Z,99.90
2023-03-06T02:59:40.613Z,99.90
2023-03-06T03:02:07.390Z,99.90
2023-03-06T03:04:34.976Z,99.90
2023-03-06T03:07:02.406Z,99.90
2023-03-06T03:09:29.240Z,99.90
2023-03-06T03:11:56.059Z,99.90
2023-03-06T03:14:24.814Z,99.90
2023-03-06T03:16:52.149Z,99.90
2023-03-06T03:19:18.894Z,99.90
2023-03-06T03:21:45.708Z,99.90
2023-03-06T03:24:12.524Z,99.90
2023-03-06T03:26:39.401Z,99.90
2023-03-06T03:29:06.212Z,99.90
2023-03-06T03:31:33.109Z,99.90
2023-03-06T03:34:00.625Z,99.90
2023-03-06T03:36:27.524Z,99.90
2023-03-06T03:38:54.961Z,99.90
2023-03-06T03:41:21.753Z,99.90
2023-03-06T03:43:48.568Z,99.90
2023-03-06T03:46:15.445Z,99.90
2023-03-06T03:48:42.471Z,99.90
2023-03-06T03:51:12.382Z,99.90
2023-03-06T03:53:39.876Z,99.90
2023-03-06T03:56:07.016Z,99.90
2023-03-06T03:58:33.903Z,99.90
2023-03-06T04:01:01.094Z,99.90
2023-03-06T04:03:28.146Z,99.90
2023-03-06T04:05:57.847Z,99.90
2023-03-06T04:08:26.100Z,99.90
2023-03-06T04:10:53.769Z,99.90
2023-03-06T04:13:21.968Z,99.90
2023-03-06T04:15:51.090Z,99.90
2023-03-06T04:18:18.883Z,99.90
2023-03-06T04:20:46.671Z,99.90
2023-03-06T04:23:13.780Z,99.90
2023-03-06T04:25:41.079Z,99.90
2023-03-06T04:28:09.008Z,99.90
2023-03-06T04:30:36.054Z,99.90
2023-03-06T04:33:03.912Z,99.90
2023-03-06T04:35:30.812Z,99.90
2023-03-06T04:37:57.680Z,99.90
2023-03-06T04:40:29.735Z,99.90
2023-03-06T04:42:58.435Z,99.90
2023-03-06T04:45:26.457Z,99.90
2023-03-06T04:47:54.028Z,99.90
2023-03-06T04:50:21.846Z,99.90
2023-03-06T04:52:53.712Z,99.90
2023-03-06T04:55:20.628Z,99.90
2023-03-06T04:57:47.989Z,99.90
2023-03-06T05:00:18.166Z,99.90
2023-03-06T05:02:45.725Z,99.90
2023-03-06T05:05:13.911Z,99.90
2023-03-06T05:07:45.872Z,99.90
2023-03-06T05:10:15.570Z,99.90
2023-03-06T05:12:43.079Z,99.90
2023-03-06T05:15:11.761Z,99.90
2023-03-06T05:17:38.754Z,99.90
2023-03-06T05:20:07.048Z,99.90
2023-03-06T05:22:37.257Z,99.90
2023-03-06T05:25:04.927Z,99.90
2023-03-06T05:27:32.132Z,99.90
2023-03-06T05:29:59.305Z,99.90
2023-03-06T05:32:26.416Z,99.90
2023-03-06T05:34:53.221Z,99.90
2023-03-06T05:37:20.149Z,99.90
2023-03-06T05:39:47.116Z,99.90
2023-03-06T05:42:13.968Z,99.90
2023-03-06T05:44:41.948Z,99.90
2023-03-06T05:47:09.172Z,99.90
2023-03-06T05:49:36.865Z,99.90
2023-03-06T05:52:05.152Z,99.90
2023-03-06T06:14:39.397Z,99.90
2023-03-06T06:17:06.315Z,99.90
2023-03-06T06:19:33.221Z,99.90
2023-03-06T06:22:02.591Z,99.90
2023-03-06T06:24:29.961Z,99.90
2023-03-06T06:26:58.325Z,99.90
2023-03-06T06:29:26.736Z,99.90
2023-03-06T06:31:54.066Z,99.90
2023-03-06T06:34:21.711Z,99.90
2023-03-06T06:36:50.510Z,99.90
2023-03-06T06:39:19.926Z,99.90
2023-03-06T06:42:02.348Z,99.90
2023-03-06T06:44:35.263Z,99.90
2023-03-06T06:47:23.108Z,99.90
2023-03-06T06:49:52.803Z,99.90
2023-03-06T06:52:20.003Z,99.90
2023-03-06T06:54:46.881Z,99.90
2023-03-06T06:57:14.012Z,99.90
2023-03-06T06:59:41.101Z,99.90
2023-03-06T07:02:08.044Z,99.90
2023-03-06T07:04:35.448Z,99.90
2023-03-06T07:07:02.458Z,99.90
2023-03-06T07:09:30.940Z,99.90
2023-03-06T07:11:58.283Z,99.90
2023-03-06T07:14:25.954Z,99.90
2023-03-06T07:16:52.732Z,99.90
2023-03-06T07:19:19.633Z,99.90
2023-03-06T07:21:46.414Z,99.90
2023-03-06T07:24:13.190Z,99.90
2023-03-06T07:26:40.030Z,99.90
2023-03-06T07:29:06.828Z,99.90
2023-03-06T07:31:33.883Z,99.90
2023-03-06T07:34:02.534Z,99.90
2023-03-06T07:36:32.854Z,99.90
2023-03-06T07:38:59.618Z,99.90
2023-03-06T07:41:26.379Z,99.90
2023-03-06T07:43:53.315Z,99.90
2023-03-06T07:46:20.056Z,99.90
2023-03-06T07:48:46.886Z,99.90
2023-03-06T07:51:16.304Z,99.90
2023-03-06T07:53:43.230Z,99.90
2023-03-06T07:56:11.981Z,99.90
2023-03-06T07:58:42.263Z,99.90
2023-03-06T08:01:12.665Z,99.90
2023-03-06T08:03:39.544Z,99.90
2023-03-06T08:06:21.100Z,99.90
2023-03-06T08:08:49.603Z,99.90
2023-03-06T08:11:19.021Z,99.90
2023-03-06T08:13:46.865Z,99.90
2023-03-06T08:16:13.727Z,99.90
2023-03-06T08:18:40.588Z,99.90
2023-03-06T08:21:16.986Z,99.90
2023-03-06T08:23:45.001Z,99.90
2023-03-06T08:26:18.901Z,99.90
2023-03-06T08:28:46.260Z,99.90
2023-03-06T08:31:32.709Z,99.90
2023-03-06T08:34:02.657Z,99.90
2023-03-06T08:36:29.823Z,99.90
2023-03-06T08:38:57.194Z,99.90
2023-03-06T08:41:24.414Z,99.10
2023-03-06T08:43:51.845Z,99.30
2023-03-06T08:46:19.589Z,99.90
2023-03-06T08:48:48.611Z,99.30
2023-03-06T08:51:17.387Z,99.00
2023-03-06T08:53:44.788Z,99.00
2023-03-06T08:56:17.807Z,99.10
2023-03-06T08:58:44.805Z,98.70
2023-03-06T09:01:16.750Z,98.20
2023-03-06T09:03:43.650Z,98.20
2023-03-06T09:06:10.650Z,98.20
2023-03-06T09:08:38.654Z,98.30
2023-03-06T09:11:08.110Z,98.50
2023-03-06T09:13:35.192Z,98.20
2023-03-06T09:16:02.097Z,98.20
2023-03-06T09:18:29.537Z,97.60
2023-03-06T09:20:56.754Z,97.60
2023-03-06T09:23:23.664Z,96.90
2023-03-06T09:25:57.945Z,96.90
2023-03-06T09:28:25.501Z,95.80
2023-03-06T09:30:52.701Z,95.90
2023-03-06T09:33:20.417Z,95.50
2023-03-06T09:35:50.963Z,94.80
2023-03-06T09:38:19.182Z,94.60
2023-03-06T09:40:58.430Z,94.40
2023-03-06T09:43:31.594Z,94.20
2023-03-06T09:45:59.412Z,93.60
2023-03-06T09:48:44.168Z,94.00
2023-03-06T09:51:19.649Z,93.90
2023-03-06T09:54:10.237Z,93.90
2023-03-06T09:56:37.510Z,93.90
2023-03-06T09:59:23.854Z,92.80
2023-03-06T10:01:59.089Z,92.20
2023-03-06T10:04:33.723Z,92.20
2023-03-06T10:07:22.872Z,92.30
2023-03-06T10:09:56.870Z,92.30
2023-03-06T10:12:28.590Z,92.30
2023-03-06T10:15:16.943Z,92.30
2023-03-06T10:17:44.622Z,92.50
2023-03-06T10:20:20.510Z,92.50
2023-03-06T10:23:03.155Z,92.20
2023-03-06T10:25:52.829Z,91.70
2023-03-06T10:28:28.780Z,91.70
2023-03-06T10:31:07.717Z,91.10
2023-03-06T10:33:59.231Z,91.20
2023-03-06T10:36:28.265Z,90.50
2023-03-06T10:38:57.893Z,90.00
2023-03-06T10:41:28.819Z,90.30
2023-03-06T10:44:01.398Z,90.10
2023-03-06T10:46:31.300Z,88.80
2023-03-06T10:49:01.346Z,89.60
2023-03-06T10:51:30.387Z,89.00
2023-03-06T10:54:19.338Z,89.20
2023-03-06T10:56:47.275Z,89.40
2023-03-06T10:59:19.455Z,89.10
2023-03-06T11:01:51.440Z,89.80
2023-03-06T11:04:33.142Z,88.60
2023-03-06T11:07:20.854Z,88.70
2023-03-06T11:10:19.705Z,88.80
2023-03-06T11:13:21.171Z,88.20
2023-03-06T11:16:28.897Z,88.50
2023-03-06T11:19:03.912Z,88.30
2023-03-06T11:21:33.712Z,85.50
2023-03-06T11:24:17.184Z,85.50
2023-03-06T11:27:05.593Z,84.40
2023-03-06T11:29:48.052Z,83.30
2023-03-06T11:32:21.261Z,83.40
2023-03-06T11:34:53.441Z,83.70
2023-03-06T11:37:32.626Z,83.60
2023-03-06T11:40:11.974Z,82.30
2023-03-06T11:43:16.560Z,82.40
2023-03-06T11:45:51.185Z,81.20
2023-03-06T11:48:26.755Z,82.30
2023-03-06T11:51:02.265Z,81.40
2023-03-06T11:53:39.342Z,81.20
2023-03-06T11:56:31.792Z,82.00
2023-03-06T11:59:20.380Z,80.40
2023-03-06T12:02:14.748Z,79.70
2023-03-06T12:05:23.265Z,80.80
2023-03-06T12:08:17.439Z,81.60
2023-03-06T12:10:52.450Z,82.50
2023-03-06T12:13:29.231Z,83.00
2023-03-06T12:16:08.341Z,82.20
2023-03-06T12:18:38.484Z,83.30
2023-03-06T12:21:35.772Z,83.20
2023-03-06T12:24:12.236Z,83.50
2023-03-06T12:27:08.316Z,82.90
2023-03-06T12:29:55.671Z,83.60
2023-03-06T12:32:41.326Z,83.70
2023-03-06T12:35:33.925Z,81.70
2023-03-06T12:38:15.987Z,82.30
2023-03-06T12:40:57.935Z,81.40
2023-03-06T12:44:05.026Z,80.60
2023-03-06T12:46:37.394Z,78.50
2023-03-06T12:49:32.652Z,76.80
2023-03-06T12:52:01.293Z,77.30
2023-03-06T12:54:31.409Z,77.60
2023-03-06T12:57:00.950Z,78.60
2023-03-06T12:59:37.256Z,78.80
2023-03-06T13:02:41.430Z,78.70
2023-03-06T13:05:23.250Z,78.90
2023-03-06T13:08:27.337Z,79.70
2023-03-06T13:11:18.557Z,79.90
2023-03-06T13:13:50.480Z,79.90
2023-03-06T13:16:33.060Z,79.50
2023-03-06T13:19:20.495Z,79.60
2023-03-06T13:21:47.636Z,79.50
2023-03-06T13:24:34.958Z,79.30
2023-03-06T13:27:12.583Z,79.50
2023-03-06T13:29:39.329Z,79.50
2023-03-06T13:32:15.430Z,80.00
2023-03-06T13:34:50.220Z,80.40
2023-03-06T13:37:17.200Z,80.70
2023-03-06T13:39:56.882Z,81.10
2023-03-06T13:42:31.392Z,81.30
2023-03-06T13:45:14.866Z,81.20
2023-03-06T13:48:21.103Z,80.40
2023-03-06T13:50:47.038Z,79.20
2023-03-06T13:53:28.505Z,78.10
2023-03-06T13:56:18.673Z,77.80
2023-03-06T13:59:15.986Z,77.90
2023-03-06T14:02:01.326Z,76.70
2023-03-06T14:04:47.035Z,76.50
2023-03-06T14:07:32.686Z,74.40
2023-03-06T14:10:20.833Z,74.00
2023-03-06T14:12:50.809Z,73.60
2023-03-06T14:15:48.769Z,73.90
2023-03-06T14:18:23.785Z,74.10
2023-03-06T14:21:02.692Z,74.50
2023-03-06T14:23:42.667Z,75.20
2023-03-06T14:26:19.423Z,75.40
2023-03-06T14:29:01.618Z,75.80
2023-03-06T14:31:41.095Z,75.90
2023-03-06T14:34:15.410Z,75.80
2023-03-06T14:36:43.850Z,76.30
2023-03-06T14:39:27.495Z,77.00
2023-03-06T14:42:17.537Z,76.90
2023-03-06T14:44:45.231Z,77.40
2023-03-06T14:47:28.599Z,77.50
2023-03-06T14:50:23.366Z,77.60
2023-03-06T14:52:57.003Z,76.10
2023-03-06T14:55:26.531Z,76.00
2023-03-06T14:57:58.184Z,76.10
2023-03-06T15:00:33.394Z,76.40
2023-03-06T15:03:00.865Z,76.30
2023-03-06T15:05:29.869Z,76.20
2023-03-06T15:08:02.510Z,76.20
2023-03-06T15:10:35.096Z,76.20
2023-03-06T15:13:26.833Z,76.30
2023-03-06T15:16:28.484Z,76.40
2023-03-06T15:19:02.746Z,76.40
2023-03-06T15:21:38.060Z,76.70
2023-03-06T15:24:35.692Z,77.10
2023-03-06T15:27:07.553Z,76.80
2023-03-06T15:29:39.043Z,76.90
2023-03-06T15:32:33.669Z,77.30
2023-03-06T15:35:30.105Z,77.40
2023-03-06T15:37:57.834Z,78.30
2023-03-06T15:40:26.779Z,78.70
2023-03-06T15:42:53.738Z,79.40
2023-03-06T15:45:23.169Z,79.80
2023-03-06T15:47:51.876Z,80.00
2023-03-06T15:50:29.550Z,80.20
2023-03-06T15:52:56.456Z,80.70
2023-03-06T15:55:26.052Z,81.10
2023-03-06T15:58:08.811Z,81.50
2023-03-06T16:00:39.510Z,81.80
2023-03-06T16:03:06.554Z,82.50
2023-03-06T16:05:33.471Z,83.40
2023-03-06T16:08:00.384Z,84.10
2023-03-06T16:10:30.135Z,84.80
2023-03-06T16:13:03.236Z,84.60
2023-03-06T16:15:33.153Z,84.90
2023-03-06T16:18:00.416Z,84.80
2023-03-06T16:20:29.059Z,85.10
2023-03-06T16:22:56.230Z,85.10
2023-03-06T16:25:24.824Z,84.80
2023-03-06T16:28:03.302Z,84.80
2023-03-06T16:30:31.966Z,85.00
2023-03-06T16:32:59.179Z,85.70
2023-03-06T16:35:26.608Z,86.50
2023-03-06T16:37:53.705Z,87.10
2023-03-06T16:40:25.032Z,87.80
2023-03-06T16:42:54.082Z,88.60
2023-03-06T16:45:24.672Z,88.70
2023-03-06T16:47:51.920Z,88.80
2023-03-06T16:50:40.213Z,89.70
2023-03-06T16:53:07.756Z,90.20
2023-03-06T16:55:34.500Z,90.30
2023-03-06T16:58:01.461Z,90.50
2023-03-06T17:00:33.235Z,90.70
2023-03-06T17:03:01.168Z,90.80
2023-03-06T17:05:28.996Z,91.00
2023-03-06T17:07:57.653Z,91.10
2023-03-06T17:10:26.421Z,91.30
2023-03-06T17:12:55.373Z,91.70
2023-03-06T17:15:22.306Z,91.80
2023-03-06T17:17:49.353Z,92.00
2023-03-06T17:20:16.484Z,92.30
2023-03-06T17:22:43.385Z,92.70
2023-03-06T17:25:10.638Z,92.90
2023-03-06T17:27:38.198Z,93.20
2023-03-06T17:30:06.234Z,93.40
2023-03-06T17:32:33.382Z,93.60
2023-03-06T17:35:00.481Z,93.90
2023-03-06T17:37:27.354Z,94.10
2023-03-06T17:39:54.373Z,94.20
2023-03-06T17:42:21.486Z,93.90
2023-03-06T17:44:48.670Z,94.00
2023-03-06T17:47:15.603Z,94.20
2023-03-06T17:49:42.728Z,94.50
2023-03-06T17:52:10.380Z,94.60
2023-03-06T17:54:37.466Z,94.90
2023-03-06T17:57:06.915Z,94.90
2023-03-06T17:59:34.525Z,94.80
2023-03-06T18:02:02.146Z,94.90
2023-03-06T18:04:29.470Z,94.90
2023-03-06T18:06:57.077Z,94.90
2023-03-06T18:09:24.572Z,95.30
2023-03-06T18:11:51.666Z,95.20
2023-03-06T18:14:18.705Z,95.50
2023-03-06T18:16:45.581Z,95.70
2023-03-06T18:19:12.672Z,95.90
2023-03-06T18:21:40.292Z,95.80
2023-03-06T18:24:09.294Z,96.00
2023-03-06T18:26:36.534Z,95.90
2023-03-06T18:29:04.567Z,96.00
2023-03-06T18:31:34.962Z,95.90
2023-03-06T18:34:13.440Z,96.00
2023-03-06T18:36:42.421Z,96.10
2023-03-06T18:39:11.667Z,96.20
2023-03-06T18:41:38.844Z,96.30
2023-03-06T18:44:06.246Z,96.30
2023-03-06T18:46:36.259Z,96.20
2023-03-06T18:49:04.752Z,96.00
2023-03-06T18:51:31.928Z,96.00
2023-03-06T18:54:00.265Z,95.80
2023-03-06T18:56:27.317Z,95.80
2023-03-06T18:58:54.303Z,95.70
2023-03-06T19:01:22.610Z,95.70
2023-03-06T19:03:49.931Z,95.60
2023-03-06T19:06:17.712Z,95.70
2023-03-06T19:08:44.919Z,95.50
2023-03-06T19:11:14.012Z,95.50
2023-03-06T19:13:41.226Z,95.60
2023-03-06T19:16:08.763Z,95.70
2023-03-06T19:18:35.605Z,95.90
2023-03-06T19:21:19.120Z,96.10
2023-03-06T19:23:46.443Z,96.30
2023-03-06T19:26:13.697Z,96.50
2023-03-06T19:28:42.044Z,96.70
2023-03-06T19:31:21.744Z,96.90
2023-03-06T19:33:50.105Z,97.20
2023-03-06T19:36:18.600Z,97.50
2023-03-06T19:38:50.369Z,97.80
2023-03-06T19:41:17.479Z,98.00
2023-03-06T19:43:44.446Z,98.30
2023-03-06T19:46:14.442Z,98.60
2023-03-06T19:48:42.249Z,98.90
2023-03-06T19:51:09.915Z,99.20
2023-03-06T19:53:37.280Z,99.50
2023-03-06T19:56:15.852Z,99.60
2023-03-06T19:58:42.741Z,99.90
2023-03-06T20:01:14.952Z,99.90
2023-03-06T20:03:42.246Z,99.90
2023-03-06T20:06:14.659Z,99.90
2023-03-06T20:08:42.721Z,99.90
2023-03-06T20:11:21.117Z,99.90
2023-03-06T20:13:48.255Z,99.90
2023-03-06T20:16:16.792Z,99.90
2023-03-06T20:18:44.068Z,99.90
2023-03-06T20:21:11.403Z,99.90
2023-03-06T20:23:38.412Z,99.90
2023-03-06T20:26:09.483Z,99.90
2023-03-06T20:28:39.069Z,99.90
2023-03-06T20:31:16.647Z,99.90
2023-03-06T20:33:49.112Z,99.90
2023-03-06T20:36:20.910Z,99.90
2023-03-06T20:38:47.905Z,99.90
2023-03-06T20:41:20.785Z,99.90
2023-03-06T20:43:47.699Z,99.90
2023-03-06T20:46:15.389Z,99.90
2023-03-06T20:48:43.061Z,99.90
2023-03-06T20:51:39.106Z,99.90
2023-03-06T20:54:08.431Z,99.90
2023-03-06T20:56:36.832Z,99.90
2023-03-06T20:59:03.661Z,99.90
2023-03-06T21:01:33.307Z,99.90
2023-03-06T21:04:01.107Z,99.90
2023-03-06T21:06:29.009Z,99.90
2023-03-06T21:08:56.732Z,99.90
2023-03-06T21:11:24.104Z,99.90
2023-03-06T21:13:52.017Z,99.90
2023-03-06T21:16:20.839Z,99.90
2023-03-06T21:18:47.889Z,99.90
2023-03-06T21:21:20.032Z,99.90
2023-03-06T21:23:48.233Z,99.90
2023-03-06T21:26:18.315Z,99.90
2023-03-06T21:28:45.258Z,99.90
2023-03-06T21:31:14.160Z,99.90
2023-03-06T21:33:42.056Z,99.90
2023-03-06T21:36:09.731Z,99.90
2023-03-06T21:38:36.645Z,99.90
2023-03-06T21:41:08.068Z,99.90
2023-03-06T21:43:35.136Z,99.90
2023-03-06T21:46:02.002Z,99.90
2023-03-06T21:48:29.359Z,99.90
2023-03-06T21:51:15.810Z,99.90
2023-03-06T21:53:44.213Z,99.90
2023-03-06T21:56:11.987Z,99.90
2023-03-06T21:58:39.385Z,99.90
2023-03-06T22:01:25.034Z,99.90
2023-03-06T22:03:52.207Z,99.90
2023-03-06T22:06:22.194Z,99.90
2023-03-06T22:08:49.260Z,99.90
2023-03-06T22:11:19.160Z,99.90
2023-03-06T22:13:47.255Z,99.90
2023-03-06T22:16:14.625Z,99.90
2023-03-06T22:18:45.585Z,99.90
2023-03-06T22:21:14.854Z,99.90
2023-03-06T22:23:42.010Z,99.90
2023-03-06T22:26:14.458Z,99.90
2023-03-06T22:28:41.936Z,99.90
2023-03-06T22:31:14.643Z,99.90
2023-03-06T22:33:41.904Z,99.90
2023-03-06T22:36:12.092Z,99.90
2023-03-06T22:38:41.146Z,99.90
2023-03-06T22:41:09.189Z,99.90
2023-03-06T22:43:36.681Z,99.90
2023-03-06T22:46:07.266Z,99.90
2023-03-06T22:48:34.442Z,99.90
2023-03-06T22:51:18.578Z,99.90
2023-03-06T22:53:46.758Z,99.90
2023-03-06T22:56:16.152Z,99.90
2023-03-06T22:58:44.879Z,99.90
2023-03-06T23:01:18.326Z,99.90
2023-03-06T23:03:48.615Z,99.90
2023-03-06T23:06:17.002Z,99.90
2023-03-06T23:08:48.199Z,99.90
2023-03-06T23:11:17.270Z,99.90
2023-03-06T23:13:44.100Z,99.90
2023-03-06T23:16:10.993Z,99.90
2023-03-06T23:18:39.305Z,99.90
2023-03-06T23:21:11.593Z,99.90
2023-03-06T23:23:39.112Z,99.90
2023-03-06T23:26:11.011Z,99.90
2023-03-06T23:28:38.022Z,99.90
2023-03-06T23:31:10.007Z,99.90
2023-03-06T23:33:38.963Z,99.90
2023-03-06T23:36:12.231Z,99.90
2023-03-06T23:38:39.720Z,99.90
2023-03-06T23:41:09.239Z,99.90
2023-03-06T23:43:36.548Z,99.90
2023-03-06T23:46:04.404Z,99.90
2023-03-06T23:48:31.757Z,99.90
2023-03-06T23:50:58.856Z,99.90
2023-03-06T23:53:26.083Z,99.90
2023-03-06T23:55:53.327Z,99.90
2023-03-06T23:58:20.446Z,99.90
